Linch, Wyoming
Current Conditions -  °F | °C
As of 3:53 AM on Monday 22 Dec 2014 (Local Time) from KCPR Reporting Station
Clear Clear  
Wind Chill: -11°   Ceiling: Unl
Heat Index: -5°   Visibility: 10mi
Dew Point: -8°   Wind: 10mph
Humidity: 78%   Direction: 270°W
Pressure: 29.73"   Gusts: NA
Location:  43.61°N, 106.2°W
Report Text: KCPR 221053Z AUTO 27009KT 10SM CLR M05/M08 A2973 RMK AO2 SLP085 T10501083
Loading
Personal Weather Stations






























Interactive Weather Map New forecast layout! Learn more

10-Day Weather Forecast

Advertisements
Track Severe Weather on mobile